Time;durP1;ratioP1;P1;durP2;ratioP2;P2;SDS_P1;SDS_P2;PMS_P1;PMS_P2;Temp;Humidity;BMP_temperature;BMP_pressure;BME280_temperature;BME280_humidity;BME280_pressure;Samples;Min_cycle;Max_cycle;Signal;HPM_P1;HPM_P2
2022/03/11 00:01:44;;;;;;;4.72;1.73;;;;;;;7.44;47.67;101817.69;5081526;27;96657;-37
2022/03/11 00:04:09;;;;;;;3.97;1.92;;;;;;;7.39;47.70;101825.03;5099266;27;106237;-36
2022/03/11 00:06:35;;;;;;;4.82;1.58;;;;;;;7.34;47.69;101811.72;5099725;27;116587;-37
2022/03/11 00:09:01;;;;;;;3.05;1.85;;;;;;;7.27;47.75;101803.84;5100361;27;97897;-37
2022/03/11 00:11:26;;;;;;;2.97;1.80;;;;;;;7.30;47.99;101820.81;5081933;27;96602;-37
2022/03/11 00:13:51;;;;;;;4.80;1.98;;;;;;;7.27;47.91;101815.53;5100469;27;96828;-37
2022/03/11 00:16:17;;;;;;;4.97;2.33;;;;;;;7.23;48.19;101803.97;5099812;27;117092;-37
2022/03/11 00:18:42;;;;;;;3.47;2.25;;;;;;;7.22;47.99;101801.31;5100544;27;100299;-37
2022/03/11 00:21:12;;;;;;;6.15;1.75;;;;;;;7.17;47.90;101796.06;5099763;27;110485;-37
2022/03/11 00:23:37;;;;;;;5.38;2.10;;;;;;;7.21;47.91;101811.22;5081838;27;96491;-37
2022/03/11 00:26:02;;;;;;;1.67;1.23;;;;;;;7.12;48.04;101811.50;5099304;27;97492;-37
2022/03/11 00:28:28;;;;;;;2.83;2.03;;;;;;;7.06;48.35;101791.97;5099350;27;117977;-37
2022/03/11 00:30:53;;;;;;;2.67;1.33;;;;;;;7.11;48.21;101798.09;5099650;27;111937;-37
2022/03/11 00:33:18;;;;;;;2.78;1.58;;;;;;;7.00;47.68;101787.66;5099455;27;112165;-37
2022/03/11 00:35:44;;;;;;;3.05;1.67;;;;;;;7.07;48.22;101802.69;5098809;27;122415;-37
2022/03/11 00:38:09;;;;;;;4.10;2.08;;;;;;;7.01;48.38;101798.38;5099954;27;97780;-37
2022/03/11 00:40:34;;;;;;;3.03;1.58;;;;;;;7.01;48.42;101797.50;5100385;27;96471;-37
2022/03/11 00:42:59;;;;;;;2.08;1.33;;;;;;;6.93;48.08;101786.06;5099542;27;107884;-37
2022/03/11 00:45:25;;;;;;;3.25;1.85;;;;;;;6.93;48.25;101786.94;5099668;27;98014;-37
2022/03/11 00:47:50;;;;;;;5.03;1.90;;;;;;;6.89;48.60;101784.41;5098848;27;97763;-37
2022/03/11 00:50:15;;;;;;;2.95;1.63;;;;;;;6.88;48.44;101790.72;5099563;27;96566;-37
2022/03/11 00:52:42;;;;;;;4.18;1.90;;;;;;;6.90;48.12;101794.25;5099816;27;96825;-37
2022/03/11 00:55:08;;;;;;;3.30;2.05;;;;;;;6.82;48.96;101781.03;5080726;27;101145;-37
2022/03/11 00:57:33;;;;;;;6.22;2.30;;;;;;;6.86;48.46;101797.97;5099393;27;97878;-36
2022/03/11 00:59:58;;;;;;;3.85;2.45;;;;;;;6.79;48.84;101783.81;5099272;27;101312;-37
2022/03/11 01:02:24;;;;;;;2.83;1.30;;;;;;;6.81;48.57;101795.41;5099737;27;96771;-37
2022/03/11 01:04:49;;;;;;;4.75;1.50;;;;;;;6.73;48.71;101770.56;5097857;27;120473;-36
2022/03/11 01:07:15;;;;;;;6.35;2.55;;;;;;;6.68;48.87;101762.63;5099798;27;97850;-37
2022/03/11 01:09:41;;;;;;;4.15;2.55;;;;;;;6.73;49.07;101774.13;5081173;27;96727;-37
2022/03/11 01:12:06;;;;;;;2.88;2.05;;;;;;;6.65;48.91;101760.03;5098515;27;110373;-37
2022/03/11 01:14:32;;;;;;;5.50;2.83;;;;;;;6.64;49.28;101751.97;5098920;27;97905;-37
2022/03/11 01:17:03;;;;;;;2.70;1.88;;;;;;;6.69;49.02;101764.38;5099221;27;97387;-37
2022/03/11 01:19:29;;;;;;;3.80;2.20;;;;;;;6.67;48.80;101754.56;5099484;27;96638;-37
2022/03/11 01:21:54;;;;;;;3.05;1.75;;;;;;;6.62;48.86;101749.31;5099553;27;96721;-36
2022/03/11 01:24:21;;;;;;;4.35;2.88;;;;;;;6.59;49.29;101749.44;5098037;27;123459;-37
2022/03/11 01:26:46;;;;;;;3.10;1.88;;;;;;;6.55;49.40;101747.75;5080292;27;98713;-37
2022/03/11 01:29:11;;;;;;;2.42;1.48;;;;;;;6.52;49.12;101745.16;5099556;27;96663;-36
2022/03/11 01:31:37;;;;;;;2.50;1.48;;;;;;;6.49;49.18;101745.25;5098854;27;111810;-37
2022/03/11 01:34:02;;;;;;;5.50;2.08;;;;;;;6.45;49.22;101733.69;5098988;27;96650;-37
2022/03/11 01:36:27;;;;;;;7.55;2.33;;;;;;;6.41;48.88;101720.38;5098917;27;97855;-37
2022/03/11 01:38:54;;;;;;;3.47;1.77;;;;;;;6.44;49.31;101720.31;5079537;27;102456;-37
2022/03/11 01:41:19;;;;;;;7.13;2.35;;;;;;;6.31;49.30;101712.56;5099170;27;96774;-37
2022/03/11 01:43:53;;;;;;;4.80;1.92;;;;;;;6.34;49.94;101725.97;5098044;27;126040;-37
2022/03/11 01:46:18;;;;;;;4.35;2.17;;;;;;;6.34;49.76;101714.28;5079850;27;100750;-37
2022/03/11 01:48:44;;;;;;;4.95;2.55;;;;;;;6.31;49.53;101714.38;5099108;27;96482;-37
2022/03/11 01:51:09;;;;;;;2.97;1.63;;;;;;;6.31;49.78;101709.88;5098681;27;102804;-37
2022/03/11 01:53:35;;;;;;;4.43;2.35;;;;;;;6.30;49.91;101713.50;5098188;27;99443;-37
2022/03/11 01:56:07;;;;;;;3.92;2.33;;;;;;;6.27;50.00;101707.31;5080282;27;99101;-37
2022/03/11 01:58:33;;;;;;;4.43;1.90;;;;;;;6.20;49.31;101694.97;5099219;27;96523;-37
2022/03/11 02:00:58;;;;;;;3.55;1.98;;;;;;;6.15;49.91;101697.84;5080051;27;96872;-37
2022/03/11 02:03:23;;;;;;;6.57;2.70;;;;;;;6.21;49.96;101699.47;5097927;27;97993;-36
2022/03/11 02:05:49;;;;;;;3.03;1.58;;;;;;;6.20;49.74;101697.69;5097742;27;99220;-37
2022/03/11 02:08:14;;;;;;;3.22;1.38;;;;;;;6.13;49.78;101688.94;5098875;27;96527;-37
2022/03/11 02:10:40;;;;;;;5.10;1.92;;;;;;;6.09;49.79;101698.00;5098199;27;104734;-37
2022/03/11 02:13:06;;;;;;;4.03;1.63;;;;;;;6.04;50.70;101695.44;5097798;27;117795;-37
2022/03/11 02:15:31;;;;;;;2.03;1.45;;;;;;;6.01;50.79;101683.91;5079698;27;101436;-37
2022/03/11 02:17:57;;;;;;;0.63;0.60;;;;;;;6.00;50.47;101692.91;5098737;27;96463;-36
2022/03/11 02:20:22;;;;;;;3.22;2.03;;;;;;;6.02;49.93;101688.34;5099221;27;96464;-37
2022/03/11 02:22:50;;;;;;;1.98;1.15;;;;;;;5.93;50.28;101681.41;5097929;27;97320;-37
2022/03/11 02:25:15;;;;;;;2.65;1.48;;;;;;;5.97;50.26;101684.94;5079350;27;101276;-36
2022/03/11 02:27:42;;;;;;;5.15;2.15;;;;;;;5.88;50.33;101670.78;5098134;27;96653;-37
2022/03/11 02:30:21;;;;;;;9.77;1.98;;;;;;;5.90;50.83;101668.91;5098545;27;96779;-37
2022/03/11 02:32:48;;;;;;;3.45;2.15;;;;;;;5.88;50.29;101661.84;5098187;27;97933;-37
2022/03/11 02:35:16;;;;;;;5.03;1.55;;;;;;;5.86;50.55;101647.53;5078968;27;100702;-37
2022/03/11 02:37:41;;;;;;;5.18;2.40;;;;;;;5.85;50.75;101648.50;5079903;27;96725;-37
2022/03/11 02:40:07;;;;;;;2.47;1.13;;;;;;;5.76;50.33;101636.19;5098373;27;96804;-37
2022/03/11 02:42:33;;;;;;;4.38;2.40;;;;;;;5.83;50.21;101650.34;5097924;27;98081;-36
2022/03/11 02:45:00;;;;;;;3.05;2.03;;;;;;;5.79;50.11;101649.53;5098321;27;97418;-37
2022/03/11 02:47:26;;;;;;;2.50;1.42;;;;;;;5.81;50.74;101646.81;5079708;27;96656;-37
2022/03/11 02:49:52;;;;;;;3.38;1.95;;;;;;;5.84;50.97;101650.31;5079456;27;97139;-37
2022/03/11 02:52:17;;;;;;;2.22;1.60;;;;;;;5.85;50.67;101652.03;5078798;27;98857;-37
2022/03/11 02:54:43;;;;;;;4.15;2.20;;;;;;;5.80;50.66;101648.63;5097866;27;97979;-37
2022/03/11 02:57:08;;;;;;;2.95;1.33;;;;;;;5.74;50.94;101644.31;5098141;27;96507;-37
2022/03/11 02:59:33;;;;;;;2.75;1.83;;;;;;;5.74;50.32;101643.41;5097710;27;102558;-36
2022/03/11 03:01:58;;;;;;;3.13;1.65;;;;;;;5.80;50.68;101651.31;5097867;27;97419;-37
2022/03/11 03:04:24;;;;;;;3.70;2.20;;;;;;;5.65;50.79;101632.91;5095926;27;121298;-36
2022/03/11 03:06:50;;;;;;;5.85;2.50;;;;;;;5.70;50.81;101639.94;5097496;27;96591;-36
2022/03/11 03:09:15;;;;;;;4.20;1.83;;;;;;;5.66;50.64;101651.69;5079734;27;96860;-37
2022/03/11 03:11:40;;;;;;;3.00;1.42;;;;;;;5.70;50.98;101644.44;5098699;27;97749;-37
2022/03/11 03:14:06;;;;;;;3.70;1.85;;;;;;;5.63;50.94;101630.28;5100627;27;115003;-36
2022/03/11 03:16:31;;;;;;;4.63;1.88;;;;;;;5.64;50.84;101631.16;5101052;27;96485;-36
2022/03/11 03:18:56;;;;;;;3.22;2.08;;;;;;;5.57;51.33;101625.06;5100908;27;96814;-37
2022/03/11 03:21:22;;;;;;;5.25;2.60;;;;;;;5.58;50.79;101620.56;5101020;27;97884;-37
2022/03/11 03:23:47;;;;;;;4.53;2.55;;;;;;;5.60;51.53;101625.00;5082257;27;100825;-37
2022/03/11 03:26:13;;;;;;;2.63;1.30;;;;;;;5.61;50.88;101631.25;5101568;27;96485;-37
2022/03/11 03:28:38;;;;;;;4.00;2.35;;;;;;;5.58;51.04;101626.84;5101440;27;97313;-36
2022/03/11 03:31:04;;;;;;;6.57;2.13;;;;;;;5.53;51.45;101629.66;5081565;27;125763;-37
2022/03/11 03:33:31;;;;;;;2.00;1.40;;;;;;;5.56;50.71;101630.50;5101238;27;97662;-37
2022/03/11 03:35:56;;;;;;;5.40;1.98;;;;;;;5.39;51.21;101607.69;5082453;27;96613;-37
2022/03/11 03:38:21;;;;;;;3.05;1.48;;;;;;;5.44;51.53;101619.16;5082574;27;96789;-37
2022/03/11 03:40:46;;;;;;;2.65;1.30;;;;;;;5.50;50.81;101627.03;5099314;27;123891;-37
2022/03/11 03:43:12;;;;;;;3.03;1.55;;;;;;;5.48;51.77;101623.53;5099780;27;126562;-37
2022/03/11 03:45:37;;;;;;;4.65;1.77;;;;;;;5.40;51.07;101612.13;5100513;27;98898;-37
2022/03/11 03:48:03;;;;;;;3.45;1.73;;;;;;;5.35;50.93;101613.19;5100988;27;96770;-37
2022/03/11 03:50:29;;;;;;;3.75;2.03;;;;;;;5.39;51.27;101614.88;5100291;27;99448;-37
2022/03/11 03:52:54;;;;;;;3.03;1.23;;;;;;;5.34;51.03;101623.03;5100463;27;99194;-36
2022/03/11 03:55:19;;;;;;;2.10;1.35;;;;;;;5.35;51.06;101618.56;5101025;27;96521;-36
2022/03/11 03:57:45;;;;;;;6.25;2.88;;;;;;;5.35;51.45;101610.50;5100853;27;98368;-37
2022/03/11 04:00:11;;;;;;;7.10;1.70;;;;;;;5.29;52.09;101608.84;5099407;27;127312;-36
2022/03/11 04:02:37;;;;;;;1.73;1.30;;;;;;;5.26;51.70;101595.50;5081758;27;100863;-37
2022/03/11 04:05:04;;;;;;;4.38;1.80;;;;;;;5.24;51.62;101597.34;5099514;27;96765;-37
2022/03/11 04:07:29;;;;;;;2.42;1.60;;;;;;;5.19;51.53;101589.41;5082062;27;96788;-37
2022/03/11 04:09:55;;;;;;;4.95;2.00;;;;;;;5.20;51.75;101591.19;5100314;27;97598;-36
2022/03/11 04:12:20;;;;;;;3.55;1.45;;;;;;;5.21;51.98;101589.38;5100363;27;97824;-37
2022/03/11 04:14:45;;;;;;;1.80;1.35;;;;;;;5.17;52.03;101583.19;5099704;27;112156;-37
2022/03/11 04:17:11;;;;;;;4.38;1.77;;;;;;;5.18;51.63;101589.47;5099961;27;104505;-37
2022/03/11 04:19:36;;;;;;;3.92;2.35;;;;;;;5.18;52.05;101590.34;5099789;27;99203;-37
2022/03/11 04:22:02;;;;;;;2.50;1.42;;;;;;;5.17;52.17;101585.88;5099423;27;127390;-36
2022/03/11 04:24:27;;;;;;;4.25;1.95;;;;;;;5.21;51.93;101600.13;5100140;27;96539;-37
2022/03/11 04:26:53;;;;;;;3.88;1.85;;;;;;;5.10;52.13;101562.78;5100629;27;96619;-37
2022/03/11 04:29:18;;;;;;;4.25;1.92;;;;;;;5.16;52.00;101569.81;5099537;27;97821;-36
2022/03/11 04:31:44;;;;;;;5.50;1.98;;;;;;;5.13;51.92;101569.91;5099980;27;97834;-37
2022/03/11 04:34:09;;;;;;;2.88;1.15;;;;;;;5.13;51.74;101562.75;5100302;27;96625;-36
2022/03/11 04:36:38;;;;;;;3.13;1.35;;;;;;;5.12;52.24;101577.06;5100360;27;96774;-36
2022/03/11 04:39:05;;;;;;;4.38;2.03;;;;;;;5.03;52.20;101564.78;5080974;27;100950;-37
2022/03/11 04:41:33;;;;;;;2.67;1.33;;;;;;;5.01;52.15;101568.44;5081291;27;100562;-37
2022/03/11 04:43:58;;;;;;;6.60;2.13;;;;;;;4.99;51.98;101570.28;5081543;27;96534;-36
2022/03/11 04:46:23;;;;;;;3.10;1.75;;;;;;;5.01;52.63;101577.38;5099952;27;100989;-37
2022/03/11 04:48:49;;;;;;;2.35;1.05;;;;;;;5.00;52.19;101570.22;5099760;27;97839;-37
2022/03/11 04:51:15;;;;;;;7.20;2.22;;;;;;;5.00;52.14;101574.72;5099560;27;99392;-36
2022/03/11 04:53:40;;;;;;;1.55;1.27;;;;;;;4.96;52.29;101573.94;5099796;27;96496;-37
2022/03/11 04:56:06;;;;;;;4.18;2.00;;;;;;;4.94;52.32;101575.78;5099908;27;96785;-36
2022/03/11 04:58:31;;;;;;;5.20;1.83;;;;;;;4.88;52.40;101570.56;5080849;27;99435;-37
2022/03/11 05:00:56;;;;;;;2.97;1.75;;;;;;;4.90;52.71;101571.41;5098781;27;125445;-37
2022/03/11 05:03:22;;;;;;;2.75;1.90;;;;;;;4.92;52.21;101579.44;5098375;27;109641;-36
2022/03/11 05:05:47;;;;;;;2.92;1.60;;;;;;;4.91;52.10;101581.25;5098664;27;111420;-36
2022/03/11 05:08:12;;;;;;;2.95;1.58;;;;;;;4.82;52.52;101554.63;5099464;27;97392;-36
2022/03/11 05:10:37;;;;;;;3.78;2.22;;;;;;;4.89;52.25;101556.22;5098969;27;125922;-37
2022/03/11 05:13:03;;;;;;;2.63;1.92;;;;;;;4.89;52.49;101566.97;5098887;27;106746;-37
2022/03/11 05:15:28;;;;;;;2.55;1.42;;;;;;;4.84;52.65;101563.53;5099463;27;96802;-37
2022/03/11 05:17:53;;;;;;;4.38;2.22;;;;;;;4.79;52.74;101560.97;5098322;27;99058;-37
2022/03/11 05:20:19;;;;;;;3.20;1.63;;;;;;;4.82;52.68;101565.38;5098391;27;126039;-37
2022/03/11 05:22:44;;;;;;;3.50;1.80;;;;;;;4.75;53.10;101553.91;5099760;27;96670;-37
2022/03/11 05:25:11;;;;;;;1.83;1.25;;;;;;;4.72;53.00;101553.09;5098928;27;99665;-37
2022/03/11 05:27:37;;;;;;;3.83;2.42;;;;;;;4.72;52.39;101550.41;5080300;27;100867;-36
2022/03/11 05:30:04;;;;;;;1.55;0.90;;;;;;;4.65;52.44;101553.25;5098886;27;97834;-37
2022/03/11 05:32:30;;;;;;;3.80;1.60;;;;;;;4.60;53.31;101536.41;5080602;27;96653;-37
2022/03/11 05:34:55;;;;;;;3.15;1.75;;;;;;;4.69;53.11;101556.72;5099264;27;96814;-36
2022/03/11 05:37:20;;;;;;;3.10;1.95;;;;;;;4.61;52.68;101545.31;5098559;27;110122;-37
2022/03/11 05:39:45;;;;;;;2.30;1.52;;;;;;;4.60;53.06;101549.81;5079523;27;126104;-36
2022/03/11 05:42:11;;;;;;;1.98;1.05;;;;;;;4.59;52.92;101548.03;5079099;27;113053;-36
2022/03/11 05:44:36;;;;;;;3.00;1.70;;;;;;;4.57;52.63;101549.00;5098563;27;104689;-36
2022/03/11 05:47:01;;;;;;;1.10;0.80;;;;;;;4.60;53.10;101554.28;5098576;27;100147;-36
2022/03/11 05:49:27;;;;;;;2.22;1.05;;;;;;;4.55;53.33;101545.47;5098432;27;99168;-36
2022/03/11 05:51:52;;;;;;;1.45;1.23;;;;;;;4.61;52.85;101546.19;5099264;27;96652;-36
2022/03/11 05:54:18;;;;;;;2.22;1.40;;;;;;;4.64;53.61;101547.94;5080937;27;96778;-36
2022/03/11 05:56:44;;;;;;;3.60;2.35;;;;;;;4.57;52.91;101538.28;5063048;27;100885;-37
2022/03/11 05:59:09;;;;;;;1.30;0.85;;;;;;;4.54;52.93;101543.72;5098981;27;97978;-37
2022/03/11 06:01:35;;;;;;;4.22;1.13;;;;;;;4.54;52.89;101541.03;5099037;27;96760;-36
2022/03/11 06:04:02;;;;;;;0.68;0.60;;;;;;;4.59;53.00;101556.09;5079545;27;96884;-36
2022/03/11 06:06:30;;;;;;;5.30;1.52;;;;;;;4.57;52.58;101549.88;5079324;27;100712;-37
2022/03/11 06:08:56;;;;;;;6.15;2.30;;;;;;;4.54;52.57;101547.28;5079804;27;100737;-36
2022/03/11 06:11:21;;;;;;;1.23;0.80;;;;;;;4.57;52.86;101549.00;5098917;27;96729;-36
2022/03/11 06:13:47;;;;;;;1.05;0.90;;;;;;;4.54;52.74;101543.72;5098630;27;96666;-37
2022/03/11 06:16:12;;;;;;;1.52;1.13;;;;;;;4.47;52.91;101527.78;5078584;27;122039;-36
2022/03/11 06:18:37;;;;;;;4.15;2.22;;;;;;;4.50;52.66;101529.50;5098335;27;97322;-36
2022/03/11 06:21:03;;;;;;;1.42;1.25;;;;;;;4.56;53.34;101533.84;5099222;27;96572;-37
2022/03/11 06:23:30;;;;;;;2.72;1.65;;;;;;;4.57;52.58;101527.53;5099293;27;96743;-36
2022/03/11 06:25:55;;;;;;;2.40;1.40;;;;;;;4.52;53.06;101524.09;5062658;27;99803;-36
2022/03/11 06:28:21;;;;;;;3.60;2.03;;;;;;;4.60;53.27;101532.81;5098380;27;97865;-36
2022/03/11 06:30:47;;;;;;;1.02;0.90;;;;;;;4.59;53.44;101531.94;5098170;27;96717;-36
2022/03/11 06:33:13;;;;;;;1.65;1.08;;;;;;;4.54;52.83;101515.09;5098693;27;96752;-36
2022/03/11 06:35:38;;;;;;;3.05;1.38;;;;;;;4.56;52.73;101521.31;5097936;27;97821;-37
2022/03/11 06:38:03;;;;;;;0.45;0.32;;;;;;;4.60;52.97;101525.69;5097724;27;99115;-37
2022/03/11 06:40:29;;;;;;;3.50;1.48;;;;;;;4.58;52.71;101523.94;5097644;27;110225;-37
2022/03/11 06:42:54;;;;;;;2.65;1.20;;;;;;;4.56;52.99;101515.94;5098953;27;96811;-36
2022/03/11 06:45:20;;;;;;;3.13;0.88;;;;;;;4.59;52.61;101531.06;5097902;27;97907;-37
2022/03/11 06:47:46;;;;;;;1.85;1.17;;;;;;;4.58;52.84;101522.16;5082013;27;101192;-36
2022/03/11 06:50:13;;;;;;;1.58;1.08;;;;;;;4.58;52.79;101523.94;5102179;27;96624;-36
2022/03/11 06:52:39;;;;;;;2.20;0.93;;;;;;;4.68;52.33;101530.84;5083335;27;96768;-36
2022/03/11 06:55:05;;;;;;;4.03;1.83;;;;;;;4.67;52.64;101518.31;5100757;27;99327;-36
2022/03/11 06:57:31;;;;;;;1.20;1.08;;;;;;;4.73;52.48;101523.53;5082680;27;102084;-36
2022/03/11 06:59:56;;;;;;;8.50;1.17;;;;;;;4.80;52.09;101529.63;5082974;27;96716;-37
2022/03/11 07:02:22;;;;;;;0.73;0.68;;;;;;;4.78;52.66;101518.06;5101911;27;96538;-37
2022/03/11 07:04:47;;;;;;;2.25;1.60;;;;;;;4.80;52.18;101511.72;5100161;27;118402;-37
2022/03/11 07:07:12;;;;;;;2.63;1.65;;;;;;;4.88;52.31;101500.75;5101405;27;97901;-37
2022/03/11 07:09:38;;;;;;;2.00;1.35;;;;;;;5.04;52.15;101512.84;5101749;27;96759;-36
2022/03/11 07:12:04;;;;;;;1.95;1.25;;;;;;;5.05;52.00;101503.88;5101861;27;96813;-36
2022/03/11 07:14:35;;;;;;;3.30;1.50;;;;;;;5.20;51.36;101520.50;5100974;27;97450;-36
2022/03/11 07:17:04;;;;;;;2.17;1.27;;;;;;;5.28;51.71;101521.13;5101245;27;98096;-36
2022/03/11 07:19:29;;;;;;;4.07;1.83;;;;;;;5.36;51.31;101529.84;5082369;27;96646;-36
2022/03/11 07:21:56;;;;;;;3.13;1.73;;;;;;;5.43;51.55;101525.19;5100203;27;96941;-36
2022/03/11 07:24:21;;;;;;;1.88;1.27;;;;;;;5.44;51.11;101508.16;5082376;27;100930;-36
2022/03/11 07:26:47;;;;;;;4.43;1.67;;;;;;;5.56;50.97;101505.09;5082185;27;100876;-37
2022/03/11 07:29:12;;;;;;;4.40;1.63;;;;;;;5.77;50.50;101514.31;5101371;27;96716;-36
2022/03/11 07:31:37;;;;;;;2.15;1.15;;;;;;;5.89;50.59;101515.75;5100605;27;108941;-37
2022/03/11 07:34:03;;;;;;;1.75;1.10;;;;;;;5.98;50.12;101501.13;5100987;27;97220;-36
2022/03/11 07:36:28;;;;;;;2.72;1.30;;;;;;;6.14;50.08;101502.41;5082416;27;99207;-36
2022/03/11 07:38:54;;;;;;;2.42;0.77;;;;;;;6.35;49.77;101512.47;5101465;27;96418;-36
2022/03/11 07:41:20;;;;;;;1.50;0.88;;;;;;;6.51;49.36;101507.44;5082603;27;96829;-37
2022/03/11 07:43:46;;;;;;;3.95;1.98;;;;;;;6.61;49.20;101499.06;5100129;27;97886;-36
2022/03/11 07:46:11;;;;;;;3.15;1.55;;;;;;;6.71;48.90;101495.09;5100711;27;97807;-37
2022/03/11 07:48:37;;;;;;;3.50;1.50;;;;;;;6.81;48.27;101492.00;5082798;27;96636;-36
2022/03/11 07:51:02;;;;;;;2.35;1.42;;;;;;;6.90;48.12;101487.25;5101241;27;96763;-37
2022/03/11 07:53:28;;;;;;;3.08;1.60;;;;;;;7.14;48.24;101493.56;5081407;27;100723;-35
2022/03/11 07:55:54;;;;;;;3.72;1.90;;;;;;;7.27;48.14;101499.34;5081481;27;100712;-37
2022/03/11 07:58:21;;;;;;;3.47;1.77;;;;;;;7.35;47.93;101489.19;5080046;27;96676;-37
2022/03/11 08:00:48;;;;;;;1.55;1.13;;;;;;;7.49;47.61;101484.16;5080837;27;96974;-37
2022/03/11 08:03:13;;;;;;;3.50;2.22;;;;;;;7.67;47.37;101496.03;5081431;27;100909;-36
2022/03/11 08:05:39;;;;;;;1.58;1.15;;;;;;;7.71;46.93;101475.22;5099914;27;97792;-37
2022/03/11 08:08:04;;;;;;;1.95;1.27;;;;;;;7.84;47.14;101479.16;5099338;27;113522;-36
2022/03/11 08:10:33;;;;;;;3.40;1.45;;;;;;;7.92;46.84;101481.59;5100740;27;96675;-37
2022/03/11 08:12:59;;;;;;;4.03;1.95;;;;;;;7.94;46.79;101456.31;5100004;27;97953;-36
2022/03/11 08:15:24;;;;;;;3.67;2.03;;;;;;;8.07;46.91;101467.47;5081496;27;100815;-36
2022/03/11 08:17:50;;;;;;;2.42;1.40;;;;;;;8.19;47.11;101468.78;5100541;27;96477;-36
2022/03/11 08:20:15;;;;;;;3.95;2.22;;;;;;;8.28;46.77;101471.97;5099736;27;111525;-36
2022/03/11 08:22:41;;;;;;;2.78;1.50;;;;;;;8.34;46.87;101470.81;5099912;27;98860;-36
2022/03/11 08:25:08;;;;;;;3.95;1.75;;;;;;;8.36;46.76;101463.53;5100021;27;99158;-36
2022/03/11 08:27:34;;;;;;;2.47;1.35;;;;;;;8.32;45.75;101450.22;5082106;27;96738;-37
2022/03/11 08:29:59;;;;;;;2.92;1.77;;;;;;;8.37;46.55;101456.34;5100498;27;96551;-36
2022/03/11 08:32:24;;;;;;;1.45;1.25;;;;;;;8.47;45.95;101465.81;5099459;27;97830;-36
2022/03/11 08:34:50;;;;;;;3.53;1.65;;;;;;;8.47;46.23;101460.44;5100068;27;97275;-36
2022/03/11 08:37:15;;;;;;;1.30;0.85;;;;;;;8.46;46.41;101459.56;5100134;27;96525;-37
2022/03/11 08:39:41;;;;;;;4.40;1.60;;;;;;;8.48;46.31;101451.38;5100062;27;96793;-36
2022/03/11 08:42:06;;;;;;;4.50;2.42;;;;;;;8.49;46.77;101435.13;5099478;27;99728;-37
2022/03/11 08:44:31;;;;;;;3.38;1.30;;;;;;;8.59;46.54;101446.38;5099832;27;97664;-36
2022/03/11 08:46:57;;;;;;;1.17;0.88;;;;;;;8.62;46.03;101435.44;5099842;27;96695;-36
2022/03/11 08:49:22;;;;;;;2.88;1.48;;;;;;;8.73;46.44;101451.19;5100627;27;96835;-36
2022/03/11 08:51:47;;;;;;;4.95;2.53;;;;;;;8.73;46.17;101436.81;5098801;27;119977;-36
2022/03/11 08:54:13;;;;;;;4.95;1.92;;;;;;;8.74;46.10;101431.31;5099559;27;97771;-37
2022/03/11 08:56:40;;;;;;;4.05;1.83;;;;;;;8.78;46.09;101424.84;5099550;27;96638;-36
2022/03/11 08:59:05;;;;;;;2.92;1.08;;;;;;;8.84;45.59;101432.69;5099873;27;96730;-36
2022/03/11 09:01:30;;;;;;;2.00;1.17;;;;;;;8.85;46.16;101423.63;5099451;27;98119;-36
2022/03/11 09:03:55;;;;;;;3.75;1.98;;;;;;;8.94;45.96;101427.75;5098393;27;98924;-36
2022/03/11 09:06:21;;;;;;;3.10;1.63;;;;;;;9.00;46.53;101438.25;5098887;27;112044;-36
2022/03/11 09:08:46;;;;;;;7.25;1.35;;;;;;;9.05;45.76;101420.00;5099238;27;96920;-36
2022/03/11 09:11:12;;;;;;;2.42;1.35;;;;;;;9.10;45.69;101423.38;5098464;27;99384;-36
2022/03/11 09:13:37;;;;;;;5.82;1.88;;;;;;;9.16;46.10;101418.66;5098631;27;126459;-36
2022/03/11 09:16:04;;;;;;;5.03;2.40;;;;;;;9.21;45.61;101417.47;5099335;27;96600;-37
2022/03/11 09:18:29;;;;;;;4.43;2.13;;;;;;;9.27;45.90;101417.19;5099467;27;96804;-37
2022/03/11 09:20:55;;;;;;;4.35;1.58;;;;;;;9.29;45.83;101411.69;5098666;27;97367;-37
2022/03/11 09:23:20;;;;;;;2.42;1.65;;;;;;;9.45;45.49;101406.44;5098795;27;99758;-37
2022/03/11 09:25:46;;;;;;;12.93;3.22;;;;;;;9.49;45.61;101408.94;5080654;27;96819;-37
2022/03/11 09:28:11;;;;;;;5.00;2.35;;;;;;;9.60;45.72;101397.59;5080829;27;96878;-36
2022/03/11 09:30:36;;;;;;;8.68;2.75;;;;;;;9.77;45.30;101397.66;5098444;27;126266;-36
2022/03/11 09:33:02;;;;;;;3.45;1.58;;;;;;;9.76;45.37;101392.31;5099198;27;97285;-36
2022/03/11 09:35:27;;;;;;;5.00;2.17;;;;;;;9.84;45.56;101387.38;5099269;27;96670;-36
2022/03/11 09:37:53;;;;;;;9.30;4.00;;;;;;;10.02;45.31;101396.41;5099156;27;103946;-36
2022/03/11 09:40:18;;;;;;;4.65;2.85;;;;;;;10.20;45.18;101403.63;5098400;27;98827;-37
2022/03/11 09:42:44;;;;;;;3.83;2.33;;;;;;;10.41;44.84;101389.94;5098887;27;96930;-36
2022/03/11 09:45:10;;;;;;;8.70;2.75;;;;;;;10.67;44.39;101401.25;5098829;27;96581;-36
2022/03/11 09:47:39;;;;;;;6.60;2.40;;;;;;;10.84;44.30;101384.94;5080681;27;96815;-37
2022/03/11 09:50:05;;;;;;;7.50;2.53;;;;;;;11.13;44.13;101387.91;5080218;27;97538;-36
2022/03/11 09:52:33;;;;;;;7.55;3.05;;;;;;;11.27;43.54;101377.16;5079907;27;101154;-37
2022/03/11 09:54:59;;;;;;;3.90;2.03;;;;;;;11.54;43.46;101380.16;5099105;27;96721;-36
2022/03/11 09:57:26;;;;;;;3.65;1.83;;;;;;;11.50;42.67;101367.72;5099100;27;96834;-36
2022/03/11 09:59:51;;;;;;;7.90;1.85;;;;;;;11.72;42.64;101378.22;5098401;27;99165;-37
2022/03/11 10:02:17;;;;;;;5.75;2.95;;;;;;;11.96;42.21;101375.06;5099001;27;97753;-36
2022/03/11 10:04:52;;;;;;;6.25;2.53;;;;;;;12.11;41.90;101376.91;5079915;27;96832;-36
2022/03/11 10:07:29;;;;;;;6.45;3.45;;;;;;;12.31;41.68;101365.69;5080159;27;96876;-36
2022/03/11 10:09:57;;;;;;;7.60;4.03;;;;;;;12.52;41.12;101360.78;5079123;27;101057;-36
2022/03/11 10:12:28;;;;;;;3.55;2.28;;;;;;;12.78;41.22;101366.47;5079839;27;99080;-37
2022/03/11 10:15:03;;;;;;;5.35;2.47;;;;;;;12.94;40.33;101359.09;5080404;27;96594;-36
2022/03/11 10:17:42;;;;;;;3.92;2.38;;;;;;;13.07;41.02;101359.19;5063295;27;96952;-36
2022/03/11 10:20:16;;;;;;;4.10;2.00;;;;;;;13.20;40.45;101366.53;5079942;27;100765;-37
2022/03/11 10:22:45;;;;;;;5.13;2.35;;;;;;;13.35;40.52;101349.28;5102261;27;97532;-37
2022/03/11 10:25:20;;;;;;;8.27;3.28;;;;;;;13.64;39.76;101360.97;5102218;27;96730;-36
2022/03/11 10:27:57;;;;;;;6.18;2.83;;;;;;;13.68;39.93;101342.56;5084060;27;96909;-37
2022/03/11 10:30:23;;;;;;;4.85;2.63;;;;;;;13.75;39.35;101355.69;5083054;27;101107;-37
2022/03/11 10:32:49;;;;;;;2.63;1.67;;;;;;;13.56;38.93;101325.19;5083160;27;100981;-37
2022/03/11 10:35:18;;;;;;;5.03;2.30;;;;;;;13.81;39.98;101330.75;5101497;27;96626;-36
2022/03/11 10:38:10;;;;;;;5.32;2.53;;;;;;;13.88;39.33;101338.50;5083524;27;96829;-36
2022/03/11 10:40:56;;;;;;;6.07;3.07;;;;;;;14.08;38.96;101335.28;5101735;27;97937;-36
2022/03/11 10:43:32;;;;;;;4.32;2.50;;;;;;;14.22;38.25;101326.16;5101022;27;99287;-36
2022/03/11 10:46:04;;;;;;;8.10;3.53;;;;;;;14.37;38.67;101332.41;5083443;27;96642;-37
2022/03/11 10:48:53;;;;;;;9.85;2.95;;;;;;;14.52;38.22;101336.78;5102020;27;96759;-37
2022/03/11 10:51:18;;;;;;;5.32;2.42;;;;;;;14.59;38.38;101326.38;5083011;27;99533;-36
2022/03/11 10:53:51;;;;;;;6.93;3.17;;;;;;;14.83;38.34;101323.75;5083035;27;100756;-37
2022/03/11 10:56:34;;;;;;;7.30;3.03;;;;;;;14.94;37.90;101302.00;5102052;27;96457;-37
2022/03/11 10:59:05;;;;;;;7.05;3.03;;;;;;;15.00;38.65;101311.59;5101717;27;96571;-37
2022/03/11 11:01:34;;;;;;;6.28;2.78;;;;;;;15.18;37.68;101317.56;5082144;27;100882;-36
2022/03/11 11:04:01;;;;;;;4.95;2.95;;;;;;;15.35;37.45;101299.94;5100830;27;97817;-36
2022/03/11 11:06:27;;;;;;;4.45;2.25;;;;;;;15.24;37.22;101293.41;5101622;27;96685;-37
2022/03/11 11:08:54;;;;;;;6.07;2.92;;;;;;;15.38;38.01;101299.72;5083326;27;96897;-36
2022/03/11 11:11:20;;;;;;;5.25;3.13;;;;;;;15.58;37.51;101307.28;5082549;27;101518;-36
2022/03/11 11:13:45;;;;;;;4.85;2.58;;;;;;;15.73;37.05;101301.66;5101144;27;97887;-36
2022/03/11 11:16:11;;;;;;;5.43;2.63;;;;;;;15.65;36.28;101292.16;5100529;27;106467;-36
2022/03/11 11:18:39;;;;;;;14.25;3.20;;;;;;;15.70;36.94;101300.91;5083229;27;96836;-37
2022/03/11 11:21:09;;;;;;;5.07;2.10;;;;;;;15.84;36.57;101286.19;5082235;27;101088;-37
2022/03/11 11:23:36;;;;;;;5.13;2.53;;;;;;;16.02;37.23;101286.66;5082278;27;100921;-37
2022/03/11 11:26:02;;;;;;;5.68;2.60;;;;;;;16.22;36.94;101286.97;5082354;27;96605;-37